createdAt,value
2022-07-29T00:00:32.183Z,12.95
2022-07-29T00:03:07.115Z,16.48
2022-07-29T00:05:43.699Z,13.57
2022-07-29T00:08:20.758Z,10.95
2022-07-29T00:10:51.325Z,11.32
2022-07-29T00:13:32.440Z,10.63
2022-07-29T00:16:11.264Z,12.60
2022-07-29T00:18:46.836Z,13.35
2022-07-29T00:21:19.848Z,18.08
2022-07-29T00:24:00.176Z,18.55
2022-07-29T00:26:34.198Z,9.25
2022-07-29T00:32:06.064Z,8.75
2022-07-29T00:34:54.912Z,15.10
2022-07-29T00:37:31.091Z,11.50
2022-07-29T00:39:58.504Z,11.85
2022-07-29T00:42:28.871Z,21.67
2022-07-29T00:45:09.501Z,14.18
2022-07-29T00:47:37.015Z,15.60
2022-07-29T00:50:11.973Z,13.43
2022-07-29T00:52:48.460Z,10.82
2022-07-29T00:55:37.360Z,19.70
2022-07-29T00:58:40.522Z,11.32
2022-07-29T01:01:15.617Z,11.98
2022-07-29T01:03:57.404Z,14.25
2022-07-29T01:06:31.009Z,9.95
2022-07-29T01:09:02.103Z,15.63
2022-07-29T01:11:40.030Z,15.88
2022-07-29T01:14:11.034Z,10.68
2022-07-29T01:16:50.897Z,14.52
2022-07-29T01:19:50.654Z,14.10
2022-07-29T01:23:07.177Z,11.75
2022-07-29T01:26:08.127Z,13.95
2022-07-29T01:29:10.385Z,10.75
2022-07-29T01:32:32.563Z,12.88
2022-07-29T01:35:14.869Z,11.20
2022-07-29T01:38:11.172Z,12.73
2022-07-29T01:40:55.998Z,11.93
2022-07-29T01:43:54.107Z,13.98
2022-07-29T01:46:35.151Z,14.95
2022-07-29T01:49:27.456Z,17.55
2022-07-29T01:52:25.934Z,16.45
2022-07-29T01:55:14.054Z,17.25
2022-07-29T01:57:49.651Z,12.63
2022-07-29T02:00:29.831Z,12.45
2022-07-29T02:03:01.067Z,20.45
2022-07-29T02:05:30.695Z,17.50
2022-07-29T02:08:00.306Z,12.43
2022-07-29T02:10:31.222Z,19.52
2022-07-29T02:13:00.257Z,19.15
2022-07-29T02:15:30.639Z,15.20
2022-07-29T02:18:07.814Z,13.02
2022-07-29T02:20:36.105Z,12.27
2022-07-29T02:23:04.753Z,16.17
2022-07-29T02:25:37.526Z,17.63
2022-07-29T02:28:08.019Z,15.30
2022-07-29T02:30:41.687Z,18.67
2022-07-29T02:33:11.434Z,16.23
2022-07-29T02:35:41.628Z,14.65
2022-07-29T02:38:32.514Z,18.40
2022-07-29T02:41:02.987Z,16.50
2022-07-29T02:43:34.195Z,16.80
2022-07-29T02:46:05.231Z,22.48
2022-07-29T02:48:45.536Z,21.27
2022-07-29T02:51:44.135Z,15.13
2022-07-29T02:54:22.381Z,17.50
2022-07-29T02:56:54.101Z,13.02
2022-07-29T03:02:43.569Z,17.88
2022-07-29T03:05:14.521Z,17.50
2022-07-29T03:07:44.448Z,19.38
2022-07-29T03:10:13.702Z,11.70
2022-07-29T03:12:42.237Z,16.70
2022-07-29T03:15:10.792Z,16.05
2022-07-29T03:17:39.041Z,14.25
2022-07-29T03:20:08.899Z,12.25
2022-07-29T03:22:44.887Z,10.93
2022-07-29T03:25:13.693Z,13.52
2022-07-29T03:27:41.714Z,18.70
2022-07-29T03:30:10.101Z,15.07
2022-07-29T03:32:37.660Z,14.55
2022-07-29T03:35:09.371Z,30.65
2022-07-29T03:37:37.761Z,12.65
2022-07-29T03:40:09.909Z,19.85
2022-07-29T03:42:41.598Z,11.65
2022-07-29T03:45:12.350Z,19.23
2022-07-29T03:47:51.140Z,18.88
2022-07-29T03:50:22.157Z,27.30
2022-07-29T03:52:49.912Z,14.68
2022-07-29T03:55:17.590Z,19.65
2022-07-29T03:57:46.279Z,21.50
2022-07-29T04:00:15.205Z,15.38
2022-07-29T04:02:48.260Z,15.60
2022-07-29T04:05:16.990Z,15.05
2022-07-29T04:07:49.054Z,20.58
2022-07-29T04:10:30.455Z,15.68
2022-07-29T04:13:01.553Z,20.05
2022-07-29T04:15:38.563Z,12.52
2022-07-29T04:18:07.882Z,14.00
2022-07-29T04:20:35.668Z,18.65
2022-07-29T04:23:02.973Z,16.27
2022-07-29T04:25:30.448Z,20.80
2022-07-29T04:28:03.584Z,15.73
2022-07-29T04:30:33.069Z,17.02
2022-07-29T04:33:02.100Z,15.25
2022-07-29T04:35:37.968Z,20.35
2022-07-29T04:38:07.832Z,11.70
2022-07-29T04:40:43.486Z,10.75
2022-07-29T04:43:11.975Z,17.58
2022-07-29T04:45:43.203Z,12.13
2022-07-29T04:48:10.727Z,14.25
2022-07-29T04:50:42.134Z,15.32
2022-07-29T04:53:10.055Z,13.80
2022-07-29T04:55:39.043Z,14.75
2022-07-29T04:58:06.853Z,17.73
2022-07-29T05:00:34.213Z,16.25
2022-07-29T05:03:05.128Z,14.70
2022-07-29T05:05:36.104Z,19.17
2022-07-29T05:08:06.669Z,11.40
2022-07-29T05:10:40.082Z,16.50
2022-07-29T05:13:11.390Z,20.60
2022-07-29T05:15:41.164Z,12.27
2022-07-29T05:18:08.718Z,15.63
2022-07-29T05:20:40.233Z,22.02
2022-07-29T05:23:07.950Z,18.73
2022-07-29T05:25:42.945Z,21.10
2022-07-29T05:28:12.989Z,19.73
2022-07-29T05:30:40.672Z,18.10
2022-07-29T05:33:08.190Z,15.13
2022-07-29T05:35:45.089Z,12.65
2022-07-29T05:38:12.317Z,13.70
2022-07-29T05:40:42.582Z,14.60
2022-07-29T05:43:19.310Z,14.60
2022-07-29T05:45:49.915Z,16.75
2022-07-29T05:48:32.100Z,15.73
2022-07-29T05:51:04.089Z,17.55
2022-07-29T05:53:32.387Z,15.20
2022-07-29T05:56:11.219Z,13.15
2022-07-29T05:58:39.015Z,16.15
2022-07-29T06:01:06.918Z,17.65
2022-07-29T06:03:37.199Z,17.58
2022-07-29T06:06:05.761Z,17.80
2022-07-29T06:08:43.480Z,13.60
2022-07-29T06:11:18.973Z,21.85
2022-07-29T06:13:47.639Z,18.88
2022-07-29T06:16:15.841Z,17.10
2022-07-29T06:19:07.343Z,13.43
2022-07-29T06:21:35.010Z,11.85
2022-07-29T06:24:08.751Z,13.65
2022-07-29T06:26:39.669Z,15.77
2022-07-29T06:29:14.376Z,23.27
2022-07-29T06:31:48.610Z,15.15
2022-07-29T06:34:18.509Z,10.15
2022-07-29T06:36:47.609Z,14.13
2022-07-29T06:39:17.080Z,18.02
2022-07-29T06:41:56.698Z,40.55
2022-07-29T06:44:28.998Z,39.15
2022-07-29T06:46:57.198Z,38.88
2022-07-29T06:49:26.503Z,22.98
2022-07-29T06:52:01.039Z,21.90
2022-07-29T06:55:03.485Z,22.20
2022-07-29T06:57:36.300Z,17.85
2022-07-29T07:00:09.189Z,25.52
2022-07-29T07:02:45.658Z,30.70
2022-07-29T07:05:24.144Z,83.35
2022-07-29T07:08:01.293Z,88.43
2022-07-29T07:10:29.257Z,122.38
2022-07-29T07:13:04.318Z,93.35
2022-07-29T07:15:40.562Z,43.67
2022-07-29T07:18:11.617Z,29.58
2022-07-29T07:20:46.423Z,28.98
2022-07-29T07:23:19.758Z,24.65
2022-07-29T07:25:54.303Z,15.07
2022-07-29T07:28:28.081Z,18.65
2022-07-29T07:30:57.043Z,18.05
2022-07-29T07:33:46.291Z,18.52
2022-07-29T07:36:22.012Z,21.25
2022-07-29T07:38:49.973Z,21.20
2022-07-29T07:41:32.329Z,21.85
2022-07-29T07:44:04.150Z,16.10
2022-07-29T07:46:39.759Z,15.70
2022-07-29T07:52:06.472Z,22.73
2022-07-29T07:54:46.785Z,19.92
2022-07-29T07:57:15.624Z,19.20
2022-07-29T07:59:59.108Z,17.75
2022-07-29T08:05:02.916Z,19.75
2022-07-29T08:07:40.735Z,14.43
2022-07-29T08:10:13.372Z,17.63
2022-07-29T08:12:47.688Z,11.65
2022-07-29T08:15:22.147Z,15.38
2022-07-29T08:18:04.151Z,10.32
2022-07-29T08:20:40.411Z,13.00
2022-07-29T08:23:12.570Z,12.00
2022-07-29T08:25:44.089Z,12.25
2022-07-29T08:28:19.457Z,19.25
2022-07-29T08:30:50.015Z,12.95
2022-07-29T08:33:27.827Z,20.10
2022-07-29T08:36:00.187Z,12.63
2022-07-29T08:38:35.917Z,13.53
2022-07-29T08:41:13.421Z,10.70
2022-07-29T08:43:53.923Z,13.90
2022-07-29T08:49:33.118Z,14.00
2022-07-29T08:52:09.490Z,14.45
2022-07-29T08:54:37.206Z,14.73
2022-07-29T08:57:05.283Z,11.75
2022-07-29T08:59:44.615Z,16.80
2022-07-29T09:02:23.793Z,18.50
2022-07-29T09:05:00.266Z,12.90
2022-07-29T09:07:46.259Z,10.57
2022-07-29T09:10:15.562Z,16.98
2022-07-29T09:12:46.361Z,10.07
2022-07-29T09:15:17.951Z,14.70
2022-07-29T09:17:54.471Z,15.90
2022-07-29T09:20:24.330Z,8.50
2022-07-29T09:23:11.612Z,9.50
2022-07-29T09:25:51.918Z,7.97
2022-07-29T09:28:26.611Z,9.40
2022-07-29T09:31:20.916Z,15.80
2022-07-29T09:34:05.862Z,13.75
2022-07-29T09:36:48.664Z,9.30
2022-07-29T09:39:29.209Z,10.98
2022-07-29T09:42:02.532Z,20.13
2022-07-29T09:44:51.591Z,9.45
2022-07-29T09:47:51.239Z,14.90
2022-07-29T09:50:30.494Z,6.25
2022-07-29T09:53:03.219Z,11.35
2022-07-29T09:56:07.431Z,9.13
2022-07-29T09:59:02.568Z,9.32
2022-07-29T10:01:37.462Z,13.55
2022-07-29T10:04:08.967Z,12.38
2022-07-29T10:07:03.843Z,12.30
2022-07-29T10:10:13.150Z,13.60
2022-07-29T10:13:13.579Z,14.00
2022-07-29T10:18:40.853Z,10.95
2022-07-29T10:21:35.752Z,14.73
2022-07-29T10:24:23.820Z,13.63
2022-07-29T10:27:04.315Z,12.00
2022-07-29T10:29:44.085Z,14.32
2022-07-29T10:32:29.541Z,9.90
2022-07-29T10:35:47.233Z,9.55
2022-07-29T10:38:45.756Z,13.43
2022-07-29T10:41:44.346Z,12.27
2022-07-29T10:44:41.744Z,13.30
2022-07-29T10:47:35.052Z,9.38
2022-07-29T10:50:16.902Z,6.05
2022-07-29T10:52:52.545Z,7.00
2022-07-29T10:55:53.087Z,10.82
2022-07-29T10:58:31.674Z,10.55
2022-07-29T11:01:41.119Z,9.77
2022-07-29T11:04:55.210Z,20.40
2022-07-29T11:07:41.467Z,14.30
2022-07-29T11:10:26.934Z,13.63
2022-07-29T11:13:30.424Z,10.15
2022-07-29T11:16:15.991Z,7.68
2022-07-29T11:19:26.767Z,9.75
2022-07-29T11:22:19.095Z,10.73
2022-07-29T11:25:42.375Z,11.97
2022-07-29T11:28:26.684Z,11.50
2022-07-29T11:31:17.467Z,9.13
2022-07-29T11:34:54.479Z,9.57
2022-07-29T11:37:42.524Z,15.85
2022-07-29T11:40:33.470Z,8.88
2022-07-29T11:43:13.641Z,13.27
2022-07-29T11:45:57.887Z,9.57
2022-07-29T11:51:56.785Z,8.73
2022-07-29T11:54:57.797Z,13.35
2022-07-29T11:57:46.592Z,14.93
2022-07-29T12:00:50.182Z,9.55
2022-07-29T12:03:36.088Z,12.38
2022-07-29T12:06:24.011Z,15.65
2022-07-29T12:09:03.801Z,8.82
2022-07-29T12:11:52.300Z,11.25
2022-07-29T12:14:32.394Z,9.43
2022-07-29T12:17:30.467Z,10.70
2022-07-29T12:20:09.328Z,12.50
2022-07-29T12:22:50.208Z,12.82
2022-07-29T12:25:32.318Z,12.13
2022-07-29T12:28:10.974Z,21.20
2022-07-29T12:30:58.207Z,17.95
2022-07-29T12:33:37.441Z,14.95
2022-07-29T12:36:17.609Z,17.20
2022-07-29T12:39:06.586Z,16.88
2022-07-29T12:41:37.249Z,11.05
2022-07-29T12:44:24.392Z,9.77
2022-07-29T12:47:10.374Z,15.10
2022-07-29T12:49:51.112Z,15.07
2022-07-29T12:52:32.900Z,9.95
2022-07-29T12:55:14.270Z,12.13
2022-07-29T12:58:05.023Z,10.02
2022-07-29T13:00:39.994Z,9.50
2022-07-29T13:03:18.428Z,9.30
2022-07-29T13:08:44.141Z,12.60
2022-07-29T13:14:49.632Z,11.07
2022-07-29T13:17:32.891Z,10.88
2022-07-29T13:20:29.533Z,10.90
2022-07-29T13:23:12.264Z,11.27
2022-07-29T13:25:50.198Z,7.93
2022-07-29T13:31:52.908Z,12.35
2022-07-29T13:34:32.406Z,15.70
2022-07-29T13:37:03.652Z,12.40
2022-07-29T13:39:44.029Z,11.80
2022-07-29T13:42:33.203Z,10.98
2022-07-29T13:45:08.146Z,5.95
2022-07-29T13:47:49.191Z,9.68
2022-07-29T13:50:19.458Z,12.73
2022-07-29T13:52:54.867Z,11.25
2022-07-29T13:55:39.101Z,11.95
2022-07-29T13:58:12.406Z,11.35
2022-07-29T14:00:45.902Z,10.73
2022-07-29T14:03:32.045Z,5.65
2022-07-29T14:06:05.594Z,8.32
2022-07-29T14:08:38.771Z,9.32
2022-07-29T14:11:07.793Z,9.98
2022-07-29T14:13:46.129Z,7.57
2022-07-29T14:16:52.375Z,8.60
2022-07-29T14:19:48.970Z,10.00
2022-07-29T14:22:25.477Z,9.97
2022-07-29T14:27:38.688Z,15.40
2022-07-29T14:30:10.482Z,11.05
2022-07-29T14:32:38.700Z,10.52
2022-07-29T14:35:10.544Z,16.15
2022-07-29T14:37:40.566Z,9.00
2022-07-29T14:40:14.116Z,13.50
2022-07-29T14:42:44.840Z,9.40
2022-07-29T14:45:17.100Z,12.07
2022-07-29T14:47:53.392Z,8.83
2022-07-29T14:50:31.462Z,7.88
2022-07-29T14:53:06.704Z,9.35
2022-07-29T14:55:35.606Z,8.38
2022-07-29T15:01:30.501Z,12.00
2022-07-29T15:03:59.899Z,14.43
2022-07-29T15:06:29.564Z,15.38
2022-07-29T15:08:57.188Z,6.30
2022-07-29T15:11:24.953Z,12.75
2022-07-29T15:13:53.719Z,6.93
2022-07-29T15:16:31.420Z,10.20
2022-07-29T15:19:11.924Z,9.55
2022-07-29T15:21:48.603Z,3.77
2022-07-29T15:24:23.022Z,6.45
2022-07-29T15:26:52.964Z,7.18
2022-07-29T15:29:22.443Z,6.68
2022-07-29T15:31:54.283Z,12.32
2022-07-29T15:34:25.168Z,5.97
2022-07-29T15:36:54.386Z,9.73
2022-07-29T15:39:24.458Z,8.68
2022-07-29T15:41:53.747Z,3.28
2022-07-29T15:44:24.908Z,9.77
2022-07-29T15:47:06.185Z,10.33
2022-07-29T15:49:49.376Z,5.10
2022-07-29T15:52:24.991Z,5.70
2022-07-29T15:55:03.261Z,6.47
2022-07-29T15:57:32.066Z,6.88
2022-07-29T16:00:00.410Z,6.82
2022-07-29T16:02:27.900Z,8.18
2022-07-29T16:05:02.826Z,7.38
2022-07-29T16:07:33.933Z,6.45
2022-07-29T16:10:03.722Z,5.88
2022-07-29T16:12:37.593Z,11.63
2022-07-29T16:15:09.751Z,8.50
2022-07-29T16:17:41.489Z,10.57
2022-07-29T16:20:15.707Z,8.32
2022-07-29T16:22:43.396Z,57.78
2022-07-29T16:25:12.716Z,53.38
2022-07-29T16:27:45.731Z,12.73
2022-07-29T16:30:23.958Z,25.52
2022-07-29T16:33:15.561Z,13.38
2022-07-29T16:35:51.960Z,13.07
2022-07-29T16:38:23.461Z,41.07
2022-07-29T16:40:58.946Z,25.58
2022-07-29T16:43:37.289Z,11.45
2022-07-29T16:46:35.076Z,12.55
2022-07-29T16:49:12.606Z,8.75
2022-07-29T16:51:58.244Z,14.45
2022-07-29T16:54:45.640Z,14.57
2022-07-29T16:57:16.681Z,40.47
2022-07-29T17:00:18.843Z,25.00
2022-07-29T17:02:50.540Z,13.88
2022-07-29T17:05:22.179Z,50.40
2022-07-29T17:10:33.800Z,11.90
2022-07-29T17:13:10.887Z,11.00
2022-07-29T17:15:43.085Z,13.88
2022-07-29T17:18:12.478Z,16.27
2022-07-29T17:20:51.020Z,11.27
2022-07-29T17:23:19.963Z,11.18
2022-07-29T17:25:48.453Z,9.52
2022-07-29T17:28:22.423Z,27.95
2022-07-29T17:30:58.778Z,14.98
2022-07-29T17:33:38.159Z,9.23
2022-07-29T17:36:27.005Z,21.70
2022-07-29T17:39:11.630Z,31.73
2022-07-29T17:41:51.879Z,22.80
2022-07-29T17:44:38.747Z,21.60
2022-07-29T17:47:16.324Z,15.90
2022-07-29T17:49:49.954Z,30.83
2022-07-29T17:52:25.626Z,14.98
2022-07-29T17:55:06.520Z,13.07
2022-07-29T17:57:35.323Z,21.40
2022-07-29T18:00:02.753Z,22.05
2022-07-29T18:02:32.146Z,9.68
2022-07-29T18:05:08.733Z,13.32
2022-07-29T18:07:48.880Z,16.85
2022-07-29T18:13:07.560Z,15.15
2022-07-29T18:15:35.177Z,11.52
2022-07-29T18:18:14.738Z,8.63
2022-07-29T18:20:48.979Z,13.02
2022-07-29T18:23:24.517Z,9.48
2022-07-29T18:25:57.436Z,12.10
2022-07-29T18:28:27.422Z,18.10
2022-07-29T18:31:04.467Z,8.90
2022-07-29T18:34:04.434Z,10.52
2022-07-29T18:36:52.314Z,14.00
2022-07-29T18:39:22.653Z,9.38
2022-07-29T18:42:06.217Z,9.70
2022-07-29T18:47:32.297Z,10.60
2022-07-29T18:50:09.536Z,14.90
2022-07-29T18:52:48.877Z,13.27
2022-07-29T18:55:34.380Z,14.55
2022-07-29T18:58:07.539Z,9.68
2022-07-29T19:00:41.563Z,11.30
2022-07-29T19:03:16.263Z,14.68
2022-07-29T19:05:50.593Z,7.72
2022-07-29T19:08:26.989Z,10.50
2022-07-29T19:11:05.257Z,5.10
2022-07-29T19:13:37.607Z,9.55
2022-07-29T19:16:21.222Z,17.58
2022-07-29T19:18:55.098Z,15.00
2022-07-29T19:21:31.293Z,10.68
2022-07-29T19:24:07.761Z,13.15
2022-07-29T19:26:49.258Z,12.60
2022-07-29T19:29:27.113Z,7.18
2022-07-29T19:32:04.877Z,13.30
2022-07-29T19:34:40.936Z,11.93
2022-07-29T19:37:27.845Z,16.45
2022-07-29T19:40:03.974Z,11.20
2022-07-29T19:42:38.262Z,7.25
2022-07-29T19:45:23.498Z,13.43
2022-07-29T19:48:07.351Z,7.35
2022-07-29T19:50:47.800Z,7.18
2022-07-29T19:53:16.226Z,9.27
2022-07-29T19:55:48.178Z,7.97
2022-07-29T19:58:28.965Z,7.45
2022-07-29T20:01:14.578Z,9.00
2022-07-29T20:03:52.028Z,10.77
2022-07-29T20:06:31.639Z,11.98
2022-07-29T20:09:17.063Z,8.40
2022-07-29T20:11:55.689Z,10.43
2022-07-29T20:14:34.017Z,7.18
2022-07-29T20:17:09.857Z,9.85
2022-07-29T20:19:50.858Z,7.88
2022-07-29T20:22:21.125Z,8.32
2022-07-29T20:24:56.779Z,6.97
2022-07-29T20:27:43.033Z,7.03
2022-07-29T20:30:16.574Z,5.78
2022-07-29T20:32:48.227Z,7.07
2022-07-29T20:35:32.076Z,10.82
2022-07-29T20:38:02.297Z,7.07
2022-07-29T20:40:40.924Z,6.15
2022-07-29T20:43:21.785Z,8.77
2022-07-29T20:46:01.202Z,7.90
2022-07-29T20:48:46.392Z,6.55
2022-07-29T20:51:32.778Z,13.68
2022-07-29T20:54:32.887Z,5.50
2022-07-29T20:57:11.665Z,6.03
2022-07-29T20:59:52.208Z,7.05
2022-07-29T21:02:31.611Z,5.88
2022-07-29T21:05:30.465Z,6.38
2022-07-29T21:08:01.051Z,10.38
2022-07-29T21:11:01.016Z,10.32
2022-07-29T21:13:43.707Z,6.97
2022-07-29T21:16:51.006Z,7.80
2022-07-29T21:19:32.952Z,5.50
2022-07-29T21:22:28.196Z,11.23
2022-07-29T21:25:12.501Z,9.23
2022-07-29T21:28:25.892Z,7.13
2022-07-29T21:31:12.765Z,11.88
2022-07-29T21:33:54.662Z,8.82
2022-07-29T21:36:48.090Z,7.50
2022-07-29T21:39:16.112Z,8.15
2022-07-29T21:41:51.793Z,7.25
2022-07-29T21:44:28.169Z,6.80
2022-07-29T21:47:03.998Z,6.78
2022-07-29T21:49:41.528Z,6.95
2022-07-29T21:52:19.700Z,6.40
2022-07-29T21:54:59.163Z,8.60
2022-07-29T21:57:52.320Z,7.80
2022-07-29T22:00:29.071Z,3.47
2022-07-29T22:02:59.168Z,4.88
2022-07-29T22:05:33.029Z,10.52
2022-07-29T22:08:01.399Z,5.95
2022-07-29T22:10:30.247Z,7.53
2022-07-29T22:13:01.728Z,5.95
2022-07-29T22:15:29.827Z,8.40
2022-07-29T22:17:58.146Z,5.13
2022-07-29T22:20:31.019Z,9.55
2022-07-29T22:23:01.550Z,6.55
2022-07-29T22:25:32.202Z,8.32
2022-07-29T22:28:00.136Z,12.10
2022-07-29T22:30:29.832Z,12.13
2022-07-29T22:32:57.245Z,10.77
2022-07-29T22:35:24.374Z,5.40
2022-07-29T22:37:53.484Z,4.22
2022-07-29T22:40:20.668Z,4.30
2022-07-29T22:42:47.824Z,5.57
2022-07-29T22:45:14.915Z,6.68
2022-07-29T22:47:48.429Z,6.13
2022-07-29T22:50:16.776Z,9.43
2022-07-29T22:52:52.971Z,6.10
2022-07-29T22:55:23.189Z,5.95
2022-07-29T22:57:50.506Z,7.35
2022-07-29T23:00:17.960Z,6.13
2022-07-29T23:02:45.624Z,3.85
2022-07-29T23:05:18.950Z,7.07
2022-07-29T23:07:46.461Z,6.43
2022-07-29T23:10:13.875Z,6.57
2022-07-29T23:12:44.294Z,5.15
2022-07-29T23:15:11.506Z,7.18
2022-07-29T23:17:38.704Z,9.38
2022-07-29T23:20:09.856Z,12.57
2022-07-29T23:22:37.464Z,8.30
2022-07-29T23:25:08.728Z,8.38
2022-07-29T23:27:38.968Z,7.68
2022-07-29T23:30:12.053Z,9.07
2022-07-29T23:32:47.832Z,4.15
2022-07-29T23:35:21.737Z,9.52
2022-07-29T23:37:54.303Z,8.23
2022-07-29T23:40:26.950Z,8.90
2022-07-29T23:43:02.952Z,8.02
2022-07-29T23:45:42.651Z,6.38
2022-07-29T23:48:18.408Z,3.72
2022-07-29T23:50:48.864Z,5.93
2022-07-29T23:53:21.038Z,11.57
2022-07-29T23:55:48.536Z,4.93
2022-07-29T23:58:21.177Z,7.13
